createdAt,value
2022-07-26T00:03:05.831Z,0.50
2022-07-26T00:06:28.870Z,1.20
2022-07-26T00:09:51.093Z,0.98
2022-07-26T00:13:13.650Z,0.40
2022-07-26T00:16:37.058Z,0.73
2022-07-26T00:19:59.414Z,0.40
2022-07-26T00:23:21.638Z,0.63
2022-07-26T00:26:43.810Z,0.50
2022-07-26T00:30:08.042Z,0.40
2022-07-26T00:33:30.442Z,0.80
2022-07-26T00:36:52.663Z,0.40
2022-07-26T00:40:16.246Z,0.43
2022-07-26T00:43:52.718Z,0.73
2022-07-26T00:47:15.996Z,0.45
2022-07-26T00:50:38.445Z,0.50
2022-07-26T00:54:00.704Z,0.50
2022-07-26T00:57:23.901Z,0.35
2022-07-26T01:00:46.362Z,0.65
2022-07-26T01:04:08.867Z,2.25
2022-07-26T01:07:31.760Z,0.40
2022-07-26T01:10:54.738Z,0.50
2022-07-26T01:14:21.388Z,0.60
2022-07-26T01:17:44.482Z,0.40
2022-07-26T01:21:13.753Z,0.40
2022-07-26T01:24:36.459Z,0.50
2022-07-26T01:27:58.754Z,0.30
2022-07-26T01:31:21.071Z,0.30
2022-07-26T01:34:43.466Z,0.60
2022-07-26T01:38:05.753Z,0.40
2022-07-26T01:41:37.514Z,0.45
2022-07-26T01:45:00.535Z,0.50
2022-07-26T01:48:22.907Z,0.32
2022-07-26T01:51:45.600Z,0.38
2022-07-26T01:55:08.270Z,0.50
2022-07-26T01:58:30.525Z,0.25
2022-07-26T02:01:52.920Z,0.40
2022-07-26T02:05:15.263Z,0.30
2022-07-26T02:08:37.511Z,0.50
2022-07-26T02:11:59.789Z,0.40
2022-07-26T02:15:21.983Z,0.45
2022-07-26T02:18:44.259Z,0.40
2022-07-26T02:22:06.529Z,0.20
2022-07-26T02:25:29.102Z,0.35
2022-07-26T02:28:51.355Z,0.52
2022-07-26T02:32:14.081Z,0.40
2022-07-26T02:35:36.935Z,0.40
2022-07-26T02:38:59.202Z,0.40
2022-07-26T02:42:21.377Z,0.30
2022-07-26T02:45:43.724Z,0.20
2022-07-26T02:49:06.220Z,0.30
2022-07-26T02:52:28.814Z,0.50
2022-07-26T02:55:51.087Z,0.40
2022-07-26T02:59:13.366Z,0.30
2022-07-26T03:02:35.663Z,0.47
2022-07-26T03:05:58.067Z,0.28
2022-07-26T03:09:20.230Z,0.43
2022-07-26T03:12:42.606Z,0.30
2022-07-26T03:16:05.290Z,0.30
2022-07-26T03:19:27.639Z,0.22
2022-07-26T03:22:49.866Z,0.43
2022-07-26T03:26:12.459Z,0.25
2022-07-26T03:29:34.764Z,0.40
2022-07-26T03:32:56.966Z,0.25
2022-07-26T03:36:19.165Z,0.22
2022-07-26T03:39:41.373Z,0.30
2022-07-26T03:43:03.609Z,0.40
2022-07-26T03:46:25.886Z,0.38
2022-07-26T03:49:48.129Z,0.30
2022-07-26T03:53:10.411Z,0.28
2022-07-26T03:56:32.718Z,0.55
2022-07-26T03:59:54.948Z,0.25
2022-07-26T04:03:17.286Z,0.20
2022-07-26T04:06:40.393Z,0.40
2022-07-26T04:10:03.548Z,0.25
2022-07-26T04:13:25.778Z,0.50
2022-07-26T04:16:48.135Z,0.30
2022-07-26T04:20:12.577Z,0.22
2022-07-26T04:23:34.903Z,0.32
2022-07-26T04:26:57.238Z,0.22
2022-07-26T04:30:19.504Z,0.43
2022-07-26T04:33:41.778Z,0.35
2022-07-26T04:37:03.946Z,0.28
2022-07-26T04:40:28.455Z,0.40
2022-07-26T04:43:51.712Z,0.43
2022-07-26T04:47:13.938Z,0.30
2022-07-26T04:50:36.406Z,0.30
2022-07-26T04:54:00.298Z,0.47
2022-07-26T04:57:22.565Z,0.17
2022-07-26T05:01:09.016Z,0.30
2022-07-26T05:04:27.169Z,0.30
2022-07-26T05:07:52.337Z,0.40
2022-07-26T05:11:14.524Z,0.30
2022-07-26T05:14:39.856Z,0.30
2022-07-26T05:18:08.844Z,0.30
2022-07-26T05:21:32.651Z,0.38
2022-07-26T05:24:54.860Z,0.30
2022-07-26T05:28:17.106Z,0.45
2022-07-26T05:31:39.533Z,0.20
2022-07-26T05:35:01.846Z,0.40
2022-07-26T05:38:25.687Z,0.30
2022-07-26T05:41:47.875Z,0.43
2022-07-26T05:45:10.925Z,0.20
2022-07-26T05:48:34.246Z,0.20
2022-07-26T05:52:01.103Z,0.30
2022-07-26T05:55:23.608Z,0.28
2022-07-26T05:58:45.799Z,0.47
2022-07-26T06:02:08.509Z,0.38
2022-07-26T06:05:31.100Z,0.28
2022-07-26T06:08:53.408Z,0.40
2022-07-26T06:12:15.603Z,0.60
2022-07-26T06:15:38.391Z,0.40
2022-07-26T06:19:00.675Z,0.40
2022-07-26T06:22:22.882Z,0.40
2022-07-26T06:25:45.070Z,0.40
2022-07-26T06:29:07.498Z,0.50
2022-07-26T06:32:29.783Z,0.30
2022-07-26T06:35:52.009Z,0.30
2022-07-26T06:39:14.272Z,0.20
2022-07-26T06:42:37.057Z,0.45
2022-07-26T06:45:59.399Z,0.30
2022-07-26T06:49:22.886Z,0.40
2022-07-26T06:52:47.969Z,0.22
2022-07-26T06:56:10.531Z,0.38
2022-07-26T06:59:32.842Z,0.40
2022-07-26T07:02:55.079Z,0.35
2022-07-26T07:06:17.347Z,0.30
2022-07-26T07:09:40.241Z,0.50
2022-07-26T07:13:02.522Z,0.45
2022-07-26T07:16:24.868Z,0.60
2022-07-26T07:19:47.306Z,0.32
2022-07-26T07:23:09.614Z,0.50
2022-07-26T07:26:32.130Z,0.38
2022-07-26T07:29:54.702Z,0.47
2022-07-26T07:33:22.719Z,0.38
2022-07-26T07:36:45.446Z,0.20
2022-07-26T07:40:09.933Z,0.40
2022-07-26T07:43:32.214Z,0.40
2022-07-26T07:46:54.617Z,0.20
2022-07-26T07:50:16.885Z,0.20
2022-07-26T07:53:40.447Z,0.35
2022-07-26T07:57:03.326Z,1.58
2022-07-26T08:00:27.316Z,0.50
2022-07-26T08:03:50.232Z,0.40
2022-07-26T08:07:13.154Z,0.47
2022-07-26T08:10:38.710Z,0.40
2022-07-26T08:14:04.257Z,0.30
2022-07-26T08:17:26.574Z,0.45
2022-07-26T08:20:52.569Z,0.43
2022-07-26T08:24:15.254Z,0.47
2022-07-26T08:27:40.962Z,0.47
2022-07-26T08:31:03.610Z,0.30
2022-07-26T08:34:25.934Z,0.30
2022-07-26T08:37:48.516Z,0.47
2022-07-26T08:41:10.953Z,0.50
2022-07-26T08:44:34.066Z,0.38
2022-07-26T08:48:16.510Z,0.40
2022-07-26T08:51:43.104Z,0.20
2022-07-26T08:55:05.703Z,0.35
2022-07-26T08:58:27.933Z,0.13
2022-07-26T09:01:58.778Z,0.30
2022-07-26T09:05:36.402Z,0.50
2022-07-26T09:09:11.248Z,0.50
2022-07-26T09:16:12.047Z,0.85
2022-07-26T09:19:34.959Z,0.47
2022-07-26T09:22:58.590Z,0.30
2022-07-26T09:26:21.718Z,0.45
2022-07-26T09:29:54.909Z,0.60
2022-07-26T09:33:20.010Z,0.75
2022-07-26T09:36:52.558Z,0.38
2022-07-26T09:40:17.570Z,0.25
2022-07-26T09:47:02.067Z,0.30
2022-07-26T09:50:32.951Z,0.22
2022-07-26T09:53:55.302Z,0.20
2022-07-26T09:57:19.261Z,0.20
2022-07-26T10:00:42.659Z,0.70
2022-07-26T10:04:05.121Z,0.40
2022-07-26T10:07:27.498Z,0.30
2022-07-26T10:10:55.758Z,0.20
2022-07-26T10:14:33.310Z,0.55
2022-07-26T10:17:55.639Z,0.30
2022-07-26T10:21:32.417Z,0.40
2022-07-26T10:24:58.293Z,0.45
2022-07-26T10:28:28.920Z,0.45
2022-07-26T10:32:15.345Z,0.47
2022-07-26T10:35:42.056Z,0.40
2022-07-26T10:39:13.238Z,0.30
2022-07-26T10:42:45.671Z,0.95
2022-07-26T10:46:17.665Z,0.55
2022-07-26T10:49:54.431Z,0.77
2022-07-26T10:53:23.810Z,0.40
2022-07-26T10:56:46.049Z,0.30
2022-07-26T11:00:11.240Z,0.40
2022-07-26T11:03:44.275Z,0.47
2022-07-26T11:07:06.558Z,0.47
2022-07-26T11:10:33.210Z,0.45
2022-07-26T11:14:08.693Z,0.45
2022-07-26T11:17:31.228Z,0.50
2022-07-26T11:20:55.546Z,0.35
2022-07-26T11:24:18.420Z,0.57
2022-07-26T11:28:02.082Z,0.60
2022-07-26T11:31:51.242Z,0.30
2022-07-26T11:35:20.368Z,0.20
2022-07-26T11:38:49.693Z,0.30
2022-07-26T11:42:15.039Z,0.38
2022-07-26T11:45:37.370Z,2.13
2022-07-26T11:48:59.729Z,0.60
2022-07-26T11:52:28.576Z,1.23
2022-07-26T11:55:50.769Z,0.38
2022-07-26T11:59:13.852Z,0.25
2022-07-26T12:02:36.123Z,0.20
2022-07-26T12:06:09.409Z,0.43
2022-07-26T12:09:43.248Z,0.30
2022-07-26T12:13:16.336Z,0.30
2022-07-26T12:16:46.719Z,0.40
2022-07-26T12:20:13.561Z,1.50
2022-07-26T12:23:15.643Z,0.30
2022-07-26T12:26:23.330Z,0.85
2022-07-26T12:29:49.141Z,0.30
2022-07-26T12:33:11.103Z,0.20
2022-07-26T12:36:34.134Z,0.20
2022-07-26T12:40:05.532Z,0.28
2022-07-26T12:43:38.158Z,0.40
2022-07-26T12:47:00.488Z,0.40
2022-07-26T12:50:26.035Z,0.68
2022-07-26T12:53:48.350Z,0.20
2022-07-26T12:57:10.713Z,0.30
2022-07-26T13:00:35.554Z,0.32
2022-07-26T13:07:20.423Z,0.47
2022-07-26T13:10:42.850Z,0.47
2022-07-26T13:14:05.112Z,0.20
2022-07-26T13:17:27.350Z,0.20
2022-07-26T13:20:49.541Z,0.20
2022-07-26T13:24:12.135Z,0.25
2022-07-26T13:27:37.363Z,0.30
2022-07-26T13:31:01.605Z,0.20
2022-07-26T13:34:23.873Z,0.40
2022-07-26T13:37:46.052Z,0.20
2022-07-26T13:41:09.918Z,0.20
2022-07-26T13:44:32.245Z,0.13
2022-07-26T13:47:54.562Z,0.20
2022-07-26T13:51:17.291Z,0.15
2022-07-26T13:54:40.326Z,0.20
2022-07-26T13:58:09.216Z,0.10
2022-07-26T14:01:43.331Z,0.13
2022-07-26T14:05:07.437Z,0.10
2022-07-26T14:08:29.676Z,0.15
2022-07-26T14:11:52.149Z,0.13
2022-07-26T14:15:21.163Z,0.10
2022-07-26T14:18:44.154Z,0.13
2022-07-26T14:22:08.001Z,0.15
2022-07-26T14:25:30.253Z,0.20
2022-07-26T14:28:56.018Z,0.20
2022-07-26T14:32:21.822Z,0.30
2022-07-26T14:35:44.790Z,0.20
2022-07-26T14:39:07.042Z,0.30
2022-07-26T14:42:29.420Z,0.77
2022-07-26T14:45:51.733Z,0.30
2022-07-26T14:49:14.352Z,0.20
2022-07-26T14:52:41.538Z,0.30
2022-07-26T14:56:03.906Z,0.20
2022-07-26T14:59:26.302Z,0.45
2022-07-26T15:02:49.262Z,0.10
2022-07-26T15:06:11.634Z,0.10
2022-07-26T15:09:33.838Z,0.40
2022-07-26T15:12:57.842Z,0.20
2022-07-26T15:16:20.393Z,0.20
2022-07-26T15:19:42.709Z,0.30
2022-07-26T15:23:07.739Z,0.20
2022-07-26T15:26:30.888Z,0.22
2022-07-26T15:29:53.120Z,0.52
2022-07-26T15:33:15.479Z,0.20
2022-07-26T15:36:37.846Z,0.40
2022-07-26T15:40:00.495Z,0.40
2022-07-26T15:43:48.967Z,0.30
2022-07-26T15:47:07.394Z,0.30
2022-07-26T15:50:31.540Z,0.50
2022-07-26T15:53:54.980Z,0.20
2022-07-26T15:57:17.286Z,0.10
2022-07-26T16:00:39.754Z,0.20
2022-07-26T16:04:02.420Z,0.20
2022-07-26T16:07:24.841Z,0.20
2022-07-26T16:10:47.185Z,0.20
2022-07-26T16:14:09.374Z,0.30
2022-07-26T16:17:31.601Z,0.73
2022-07-26T16:20:53.849Z,0.15
2022-07-26T16:24:16.167Z,0.28
2022-07-26T16:27:38.348Z,0.20
2022-07-26T16:31:01.351Z,0.47
2022-07-26T16:34:23.559Z,0.10
2022-07-26T16:37:45.828Z,0.20
2022-07-26T16:41:08.180Z,0.30
2022-07-26T16:44:30.438Z,0.30
2022-07-26T16:47:56.799Z,0.52
2022-07-26T16:51:22.022Z,0.20
2022-07-26T16:54:44.526Z,0.17
2022-07-26T16:58:06.775Z,0.40
2022-07-26T17:01:29.157Z,0.40
2022-07-26T17:04:52.176Z,0.20
2022-07-26T17:08:14.474Z,0.35
2022-07-26T17:11:36.798Z,0.38
2022-07-26T17:14:59.433Z,1.13
2022-07-26T17:18:21.902Z,0.32
2022-07-26T17:21:44.174Z,0.50
2022-07-26T17:25:07.331Z,0.30
2022-07-26T17:28:29.780Z,0.93
2022-07-26T17:31:52.853Z,0.90
2022-07-26T17:35:15.711Z,1.40
2022-07-26T17:38:40.642Z,1.08
2022-07-26T17:45:25.169Z,2.75
2022-07-26T17:48:47.766Z,2.42
2022-07-26T17:52:10.186Z,2.00
2022-07-26T17:55:32.455Z,5.57
2022-07-26T17:58:54.665Z,26.92
2022-07-26T18:02:17.247Z,19.58
2022-07-26T18:05:41.362Z,11.00
2022-07-26T18:09:06.658Z,7.53
2022-07-26T18:15:53.200Z,3.00
2022-07-26T18:19:15.835Z,2.05
2022-07-26T18:22:38.652Z,1.60
2022-07-26T18:26:00.955Z,1.08
2022-07-26T18:29:23.132Z,0.90
2022-07-26T18:32:45.344Z,0.50
2022-07-26T18:36:08.266Z,0.50
2022-07-26T18:39:32.908Z,0.47
2022-07-26T18:42:55.591Z,0.50
2022-07-26T18:46:17.899Z,0.40
2022-07-26T18:49:40.164Z,0.28
2022-07-26T18:53:02.892Z,0.57
2022-07-26T18:56:25.129Z,0.60
2022-07-26T18:59:47.922Z,0.40
2022-07-26T19:03:10.135Z,0.30
2022-07-26T19:06:33.320Z,0.40
2022-07-26T19:09:58.618Z,0.40
2022-07-26T19:13:21.281Z,0.38
2022-07-26T19:16:43.613Z,0.32
2022-07-26T19:20:08.175Z,0.30
2022-07-26T19:23:30.447Z,0.20
2022-07-26T19:26:52.697Z,0.28
2022-07-26T19:30:14.991Z,0.35
2022-07-26T19:33:37.184Z,0.20
2022-07-26T19:36:59.862Z,0.40
2022-07-26T19:40:22.475Z,0.20
2022-07-26T19:43:44.782Z,0.38
2022-07-26T19:47:09.810Z,0.40
2022-07-26T19:53:54.683Z,0.28
2022-07-26T19:57:18.637Z,0.63
2022-07-26T20:00:40.829Z,0.30
2022-07-26T20:04:03.047Z,0.38
2022-07-26T20:07:25.911Z,0.32
2022-07-26T20:10:48.174Z,0.40
2022-07-26T20:14:10.394Z,0.20
2022-07-26T20:17:35.453Z,0.50
2022-07-26T20:24:20.194Z,0.20
2022-07-26T20:27:42.643Z,0.60
2022-07-26T20:31:05.032Z,0.40
2022-07-26T20:34:27.641Z,0.50
2022-07-26T20:37:49.987Z,0.40
2022-07-26T20:41:12.231Z,0.30
2022-07-26T20:44:34.784Z,0.40
2022-07-26T20:47:57.760Z,0.30
2022-07-26T20:51:20.287Z,0.43
2022-07-26T20:54:42.575Z,0.20
2022-07-26T20:58:04.962Z,0.35
2022-07-26T21:01:27.216Z,0.40
2022-07-26T21:04:49.567Z,0.63
2022-07-26T21:08:12.244Z,0.22
2022-07-26T21:11:34.705Z,0.22
2022-07-26T21:14:57.583Z,0.85
2022-07-26T21:18:20.323Z,0.20
2022-07-26T21:21:42.536Z,0.40
2022-07-26T21:25:08.370Z,0.20
2022-07-26T21:28:30.718Z,0.43
2022-07-26T21:31:53.023Z,0.60
2022-07-26T21:35:15.262Z,0.47
2022-07-26T21:38:37.458Z,0.30
2022-07-26T21:41:59.727Z,0.30
2022-07-26T21:45:21.871Z,0.60
2022-07-26T21:48:44.193Z,0.30
2022-07-26T21:52:06.446Z,0.47
2022-07-26T21:55:28.802Z,0.60
2022-07-26T21:58:50.971Z,0.60
2022-07-26T22:02:13.297Z,0.70
2022-07-26T22:05:35.677Z,0.75
2022-07-26T22:08:58.075Z,0.40
2022-07-26T22:12:20.458Z,0.60
2022-07-26T22:15:43.605Z,0.50
2022-07-26T22:19:05.796Z,0.40
2022-07-26T22:22:28.133Z,0.60
2022-07-26T22:25:50.357Z,0.90
2022-07-26T22:29:14.988Z,0.93
2022-07-26T22:32:37.310Z,0.50
2022-07-26T22:35:59.780Z,0.68
2022-07-26T22:39:21.952Z,0.70
2022-07-26T22:42:44.640Z,0.70
2022-07-26T22:46:06.875Z,0.80
2022-07-26T22:49:29.132Z,0.80
2022-07-26T22:52:51.725Z,1.15
2022-07-26T22:56:14.095Z,0.90
2022-07-26T22:59:41.883Z,0.55
2022-07-26T23:03:04.422Z,0.70
2022-07-26T23:06:32.074Z,0.60
2022-07-26T23:09:54.533Z,1.65
2022-07-26T23:13:16.738Z,0.75
2022-07-26T23:16:39.435Z,0.75
2022-07-26T23:20:01.931Z,0.50
2022-07-26T23:23:25.396Z,0.70
2022-07-26T23:26:52.180Z,0.68
2022-07-26T23:30:14.651Z,0.60
2022-07-26T23:33:52.092Z,0.90
2022-07-26T23:37:16.303Z,0.77
2022-07-26T23:40:38.513Z,0.73
2022-07-26T23:44:00.721Z,0.60
2022-07-26T23:47:22.942Z,0.52
2022-07-26T23:50:45.163Z,1.10
2022-07-26T23:54:07.340Z,1.73
2022-07-26T23:57:29.868Z,1.55
